createdAt,value
2018-10-17T01:55:55.434Z,22.43
2018-10-17T05:56:49.477Z,48.60
2018-10-17T06:06:09.225Z,45.10
2018-10-17T07:15:04.342Z,26.73
2018-10-17T07:17:35.172Z,29.60
2018-10-17T07:20:08.517Z,33.40
2018-10-17T07:22:42.497Z,36.17
2018-10-17T07:25:18.111Z,33.97
2018-10-17T07:27:54.229Z,36.00
2018-10-17T07:30:37.847Z,29.87
2018-10-17T07:33:09.889Z,33.18
2018-10-17T07:35:47.279Z,30.17
2018-10-17T07:38:21.074Z,34.00
2018-10-17T07:42:35.089Z,40.10
2018-10-17T07:45:22.391Z,31.90
2018-10-17T08:00:34.432Z,31.67
2018-10-17T08:27:41.121Z,24.47
2018-10-17T08:30:42.716Z,31.33
2018-10-17T08:33:33.212Z,29.93
2018-10-17T08:39:44.750Z,25.87
2018-10-17T08:42:52.017Z,30.07
2018-10-17T08:45:57.530Z,38.53
2018-10-17T08:48:48.525Z,29.53
2018-10-17T08:55:14.098Z,28.77
2018-10-17T09:01:35.440Z,30.40
2018-10-17T09:18:33.856Z,27.90
2018-10-17T09:21:39.846Z,26.80
2018-10-17T09:24:31.829Z,27.27
2018-10-17T09:33:15.506Z,29.20
2018-10-17T09:50:12.403Z,24.60
2018-10-17T09:57:24.244Z,25.77
2018-10-17T10:01:12.871Z,27.70
2018-10-17T10:13:00.486Z,23.27
2018-10-17T10:24:12.957Z,27.93
2018-10-17T10:31:41.243Z,25.63
2018-10-17T10:34:28.710Z,25.60
2018-10-17T11:49:39.375Z,27.83
2018-10-17T11:52:14.155Z,25.90
2018-10-17T11:54:48.940Z,20.70
2018-10-17T11:57:22.273Z,22.50
2018-10-17T11:59:58.141Z,19.90
2018-10-17T12:02:32.213Z,21.70
2018-10-17T12:05:09.569Z,21.20
2018-10-17T12:07:44.649Z,20.90
2018-10-17T12:10:25.929Z,19.87
2018-10-17T12:13:01.489Z,20.40
2018-10-17T12:15:35.106Z,18.83
2018-10-17T12:18:10.386Z,19.87
2018-10-17T12:20:43.639Z,19.00
2018-10-17T12:23:18.299Z,19.27
2018-10-17T12:28:45.445Z,19.47
2018-10-17T12:31:17.808Z,19.63
2018-10-17T12:33:49.381Z,19.27
2018-10-17T12:36:21.586Z,19.50
2018-10-17T12:38:52.633Z,18.60
2018-10-17T12:41:24.031Z,19.33
2018-10-17T12:43:57.981Z,19.93
2018-10-17T12:46:29.847Z,19.37
2018-10-17T12:49:01.576Z,19.07
2018-10-17T12:51:37.652Z,19.10
2018-10-17T12:54:08.935Z,19.97
2018-10-17T12:56:40.848Z,20.07
2018-10-17T12:59:18.879Z,18.40
2018-10-17T13:01:53.646Z,20.20
2018-10-17T13:04:26.605Z,20.23
2018-10-17T13:06:57.321Z,19.83
2018-10-17T13:09:31.030Z,18.47
2018-10-17T13:12:03.892Z,18.47
2018-10-17T13:14:35.936Z,21.13
2018-10-17T13:17:07.153Z,19.57
2018-10-17T13:19:48.274Z,20.13
2018-10-17T13:22:40.327Z,21.13
2018-10-17T13:25:10.583Z,20.80
2018-10-17T13:27:39.839Z,23.30
2018-10-17T13:30:09.286Z,22.70
2018-10-17T13:32:40.765Z,22.77
2018-10-17T13:35:11.387Z,22.40
2018-10-17T13:37:40.797Z,24.47
2018-10-17T13:40:10.498Z,25.77
2018-10-17T13:42:40.124Z,22.37
2018-10-17T13:45:09.927Z,22.53
2018-10-17T13:47:46.867Z,20.63
2018-10-17T13:50:19.168Z,22.43
2018-10-17T13:52:50.251Z,21.97
2018-10-17T13:55:26.807Z,19.63
2018-10-17T13:57:58.788Z,22.47
2018-10-17T14:00:28.350Z,22.80
2018-10-17T14:02:58.854Z,20.87
2018-10-17T16:29:03.626Z,20.60
2018-10-17T18:32:17.274Z,36.37
2018-10-17T18:34:56.367Z,28.67
2018-10-17T18:37:29.290Z,35.50
2018-10-17T18:40:12.422Z,27.70
2018-10-17T19:22:23.683Z,32.23
2018-10-17T19:25:04.679Z,36.07
2018-10-17T19:27:48.498Z,38.97
2018-10-17T19:30:22.778Z,36.70
2018-10-17T20:54:24.058Z,36.63
2018-10-17T20:57:01.652Z,36.80
2018-10-17T20:59:54.409Z,34.30
2018-10-17T21:02:23.258Z,39.13
2018-10-17T21:05:30.660Z,28.17
2018-10-17T21:08:13.886Z,39.00
2018-10-17T21:13:54.243Z,34.23
2018-10-17T21:16:24.322Z,37.93
2018-10-17T21:18:59.534Z,35.70
2018-10-17T21:21:33.090Z,38.50
2018-10-17T21:24:05.235Z,37.23
2018-10-17T21:26:42.750Z,36.23
2018-10-17T21:29:12.639Z,36.50
2018-10-17T21:56:41.696Z,33.40
2018-10-17T21:59:18.035Z,30.83
2018-10-17T22:02:04.487Z,37.33
2018-10-17T22:04:33.112Z,40.83
2018-10-17T22:07:14.226Z,42.83
2018-10-17T22:09:43.767Z,32.00
2018-10-17T22:15:09.684Z,38.30
2018-10-17T22:17:52.505Z,38.30
2018-10-17T22:23:03.648Z,38.20
2018-10-17T22:25:36.954Z,35.00
2018-10-17T22:28:18.054Z,39.77
2018-10-17T22:33:05.460Z,36.27
2018-10-17T22:35:34.050Z,38.07
2018-10-17T22:38:06.913Z,39.13
2018-10-17T22:40:37.837Z,42.87
2018-10-17T22:57:02.597Z,34.20
2018-10-17T22:59:38.357Z,34.47
2018-10-17T23:02:16.262Z,40.40
2018-10-17T23:04:45.215Z,37.27
2018-10-17T23:07:14.547Z,37.07
2018-10-17T23:09:43.378Z,38.60
2018-10-17T23:12:12.280Z,38.73
2018-10-17T23:14:40.794Z,37.87
2018-10-17T23:17:09.370Z,41.73
2018-10-17T23:19:38.344Z,41.20
2018-10-17T23:22:07.312Z,36.17
2018-10-17T23:24:44.096Z,39.20
2018-10-17T23:27:12.712Z,34.57
2018-10-17T23:29:42.672Z,39.63
2018-10-17T23:34:50.669Z,45.63
2018-10-17T23:37:19.265Z,38.23
2018-10-17T23:39:47.768Z,40.17
2018-10-17T23:44:55.619Z,33.43
2018-10-17T23:47:24.149Z,39.03
2018-10-17T23:49:53.149Z,36.97
2018-10-17T23:52:22.706Z,44.53
2018-10-17T23:54:55.221Z,42.87
2018-10-17T23:57:26.101Z,38.57
2018-10-17T23:59:55.253Z,37.70
